Time;durP1;ratioP1;P1;durP2;ratioP2;P2;SDS_P1;SDS_P2;PMS_P1;PMS_P2;Temp;Humidity;BMP_temperature;BMP_pressure;BME280_temperature;BME280_humidity;BME280_pressure;Samples;Min_cycle;Max_cycle;Signal;HPM_P1;HPM_P2
2021/08/04 00:00:24;;;;;;;3.95;2.80;;;;;;;;;;5117449;28;20043;-79
2021/08/04 00:02:50;;;;;;;7.03;2.63;;;;;;;;;;5116235;28;20028;-79
2021/08/04 00:05:16;;;;;;;3.72;2.50;;;;;;;;;;5132861;28;20046;-80
2021/08/04 00:07:41;;;;;;;4.25;2.40;;;;;;;;;;5116271;28;20031;-80
2021/08/04 00:10:07;;;;;;;3.78;2.63;;;;;;;;;;5116229;28;20020;-79
2021/08/04 00:12:32;;;;;;;8.18;2.50;;;;;;;;;;5115655;28;20027;-79
2021/08/04 00:14:58;;;;;;;5.32;3.05;;;;;;;;;;5133505;28;20042;-79
2021/08/04 00:17:23;;;;;;;4.00;2.80;;;;;;;;;;5116499;28;20099;-79
2021/08/04 00:19:49;;;;;;;5.57;2.67;;;;;;;;;;5115164;28;20151;-79
2021/08/04 00:22:14;;;;;;;4.60;2.88;;;;;;;;;;5102517;28;20036;-79
2021/08/04 00:24:40;;;;;;;4.45;2.70;;;;;;;;;;5094960;28;20064;-82
2021/08/04 00:27:06;;;;;;;3.08;2.58;;;;;;;;;;5094498;28;20039;-80
2021/08/04 00:29:31;;;;;;;2.90;2.60;;;;;;;;;;5096173;28;20032;-80
2021/08/04 00:31:57;;;;;;;3.50;2.42;;;;;;;;;;5111982;28;20040;-80
2021/08/04 00:34:22;;;;;;;3.67;2.40;;;;;;;;;;5095172;28;20032;-80
2021/08/04 00:36:47;;;;;;;4.15;2.65;;;;;;;;;;5109141;28;20440;-80
2021/08/04 00:39:13;;;;;;;3.65;2.60;;;;;;;;;;5111113;28;20032;-80
2021/08/04 00:41:40;;;;;;;6.60;2.97;;;;;;;;;;5094332;28;20027;-80
2021/08/04 00:44:06;;;;;;;6.43;2.90;;;;;;;;;;5093648;28;20477;-80
2021/08/04 00:46:32;;;;;;;3.38;2.90;;;;;;;;;;5111629;28;20100;-80
2021/08/04 00:48:58;;;;;;;6.47;3.20;;;;;;;;;;5111647;28;20032;-80
2021/08/04 00:51:24;;;;;;;4.43;3.42;;;;;;;;;;5095912;28;20024;-81
2021/08/04 00:53:49;;;;;;;6.93;3.17;;;;;;;;;;5111602;28;20046;-80
2021/08/04 00:56:15;;;;;;;4.10;3.10;;;;;;;;;;5093571;28;20031;-80
2021/08/04 00:58:43;;;;;;;7.28;3.20;;;;;;;;;;5094260;28;20049;-80
2021/08/04 01:01:16;;;;;;;3.83;2.85;;;;;;;;;;5095268;28;20087;-80
2021/08/04 01:03:45;;;;;;;9.15;3.17;;;;;;;;;;5111256;28;20055;-81
2021/08/04 01:06:21;;;;;;;3.03;2.65;;;;;;;;;;5095026;28;20508;-80
2021/08/04 01:08:56;;;;;;;3.15;2.70;;;;;;;;;;5094453;28;20065;-81
2021/08/04 01:11:26;;;;;;;7.70;2.97;;;;;;;;;;5092626;28;20032;-80
2021/08/04 01:13:53;;;;;;;7.40;2.65;;;;;;;;;;5108723;28;20035;-80
2021/08/04 01:16:26;;;;;;;3.75;2.53;;;;;;;;;;5090404;28;20038;-81
2021/08/04 01:19:02;;;;;;;3.72;3.00;;;;;;;;;;5096233;28;20031;-81
2021/08/04 01:21:36;;;;;;;5.45;2.83;;;;;;;;;;5112440;28;20036;-80
2021/08/04 01:24:33;;;;;;;3.85;2.53;;;;;;;;;;5094471;28;20107;-80
2021/08/04 01:27:00;;;;;;;7.15;3.10;;;;;;;;;;5092793;28;20471;-81
2021/08/04 01:29:26;;;;;;;6.95;3.22;;;;;;;;;;5094872;28;20025;-80
2021/08/04 01:31:58;;;;;;;6.28;3.08;;;;;;;;;;5111574;28;20060;-80
2021/08/04 01:34:24;;;;;;;5.68;3.42;;;;;;;;;;5111606;28;20047;-80
2021/08/04 01:36:51;;;;;;;6.78;3.28;;;;;;;;;;5110570;28;20122;-80
2021/08/04 01:39:18;;;;;;;5.65;3.10;;;;;;;;;;5092921;28;20028;-81
2021/08/04 01:41:46;;;;;;;4.65;3.45;;;;;;;;;;5110709;28;20024;-81
2021/08/04 01:44:13;;;;;;;5.70;3.15;;;;;;;;;;5094763;28;20028;-80
2021/08/04 01:46:40;;;;;;;3.92;3.22;;;;;;;;;;5110544;28;20039;-80
2021/08/04 01:49:06;;;;;;;5.72;3.17;;;;;;;;;;5093688;28;20043;-80
2021/08/04 01:51:33;;;;;;;4.10;2.92;;;;;;;;;;5110922;28;20036;-80
2021/08/04 01:53:59;;;;;;;14.07;5.25;;;;;;;;;;5102095;28;20099;-80
2021/08/04 01:56:26;;;;;;;3.35;2.97;;;;;;;;;;5125966;28;20028;-80
2021/08/04 01:58:51;;;;;;;9.52;3.47;;;;;;;;;;5093825;28;20036;-80
2021/08/04 02:01:17;;;;;;;9.38;5.18;;;;;;;;;;5110637;28;20043;-80
2021/08/04 02:03:43;;;;;;;8.00;3.83;;;;;;;;;;5093777;28;20039;-80
2021/08/04 02:06:19;;;;;;;6.07;3.25;;;;;;;;;;5092688;28;20016;-81
2021/08/04 02:09:01;;;;;;;8.02;3.20;;;;;;;;;;5110072;28;20043;-80
2021/08/04 02:12:01;;;;;;;8.95;3.58;;;;;;;;;;5110479;28;20035;-80
2021/08/04 02:14:32;;;;;;;7.93;3.00;;;;;;;;;;5109753;28;20040;-80
2021/08/04 02:17:05;;;;;;;6.70;3.53;;;;;;;;;;5093561;28;20028;-80
2021/08/04 02:19:52;;;;;;;10.70;3.45;;;;;;;;;;5088358;28;20117;-79
2021/08/04 02:22:28;;;;;;;6.70;3.60;;;;;;;;;;5088087;28;20039;-80
2021/08/04 02:25:04;;;;;;;4.13;3.40;;;;;;;;;;5093303;28;20040;-80
2021/08/04 02:27:30;;;;;;;6.32;3.67;;;;;;;;;;5111550;28;20077;-80
2021/08/04 02:29:59;;;;;;;5.72;3.58;;;;;;;;;;5113366;28;20019;-80
2021/08/04 02:32:26;;;;;;;4.88;3.58;;;;;;;;;;5096085;28;20116;-80
2021/08/04 02:34:51;;;;;;;6.20;3.55;;;;;;;;;;5113052;28;20049;-80
2021/08/04 02:37:17;;;;;;;11.93;4.30;;;;;;;;;;5114390;28;20032;-80
2021/08/04 02:39:43;;;;;;;9.40;3.63;;;;;;;;;;5099442;28;20036;-80
2021/08/04 02:42:09;;;;;;;17.63;5.10;;;;;;;;;;5099221;28;20095;-80
2021/08/04 02:44:35;;;;;;;8.00;4.50;;;;;;;;;;5099406;28;20104;-80
2021/08/04 02:47:01;;;;;;;5.95;4.13;;;;;;;;;;5115548;28;20035;-80
2021/08/04 02:49:27;;;;;;;9.48;4.60;;;;;;;;;;5099371;28;20031;-80
2021/08/04 02:51:53;;;;;;;12.77;5.40;;;;;;;;;;5118898;28;20060;-82
2021/08/04 02:54:19;;;;;;;7.95;4.38;;;;;;;;;;5123944;28;20042;-85
2021/08/04 02:56:46;;;;;;;12.00;4.85;;;;;;;;;;5103302;28;20481;-81
2021/08/04 02:59:11;;;;;;;5.63;4.28;;;;;;;;;;5128734;28;20058;-83
2021/08/04 03:01:39;;;;;;;8.07;4.80;;;;;;;;;;5110028;28;20040;-84
2021/08/04 03:04:05;;;;;;;10.48;5.85;;;;;;;;;;5111492;28;20047;-85
2021/08/04 03:06:31;;;;;;;8.13;5.20;;;;;;;;;;5125891;28;20031;-80
2021/08/04 03:08:56;;;;;;;8.07;6.00;;;;;;;;;;5130022;28;20038;-80
2021/08/04 03:11:22;;;;;;;15.32;5.32;;;;;;;;;;5113360;28;20043;-82
2021/08/04 03:13:47;;;;;;;7.88;5.32;;;;;;;;;;5112886;28;20031;-81
2021/08/04 03:16:12;;;;;;;11.95;5.82;;;;;;;;;;5112656;28;20042;-82
2021/08/04 03:18:38;;;;;;;13.10;5.78;;;;;;;;;;5131333;28;20116;-81
2021/08/04 03:21:03;;;;;;;11.77;6.47;;;;;;;;;;5112960;28;20027;-80
2021/08/04 03:23:31;;;;;;;7.10;6.25;;;;;;;;;;5128556;28;20036;-81
2021/08/04 03:25:56;;;;;;;9.10;6.95;;;;;;;;;;5097746;28;20052;-80
2021/08/04 03:28:22;;;;;;;12.82;6.43;;;;;;;;;;5093068;28;20138;-81
2021/08/04 03:30:47;;;;;;;10.70;7.47;;;;;;;;;;5109343;28;20058;-80
2021/08/04 03:33:13;;;;;;;12.38;7.88;;;;;;;;;;5092901;28;20087;-81
2021/08/04 03:35:43;;;;;;;9.95;7.13;;;;;;;;;;5092719;28;20055;-82
2021/08/04 03:38:08;;;;;;;12.57;7.80;;;;;;;;;;5092489;28;20112;-81
2021/08/04 03:40:35;;;;;;;10.30;7.40;;;;;;;;;;5092385;28;20035;-79
2021/08/04 03:43:01;;;;;;;11.20;7.40;;;;;;;;;;5093537;28;20042;-80
2021/08/04 03:45:26;;;;;;;15.85;7.60;;;;;;;;;;5093154;28;20040;-81
2021/08/04 03:47:52;;;;;;;14.13;7.40;;;;;;;;;;5093856;28;20032;-82
2021/08/04 03:50:18;;;;;;;10.27;6.78;;;;;;;;;;5096258;28;20020;-82
2021/08/04 03:52:43;;;;;;;10.65;6.95;;;;;;;;;;5092864;28;20036;-81
2021/08/04 03:55:12;;;;;;;12.57;7.18;;;;;;;;;;5095419;28;20042;-81
2021/08/04 03:57:39;;;;;;;8.30;7.38;;;;;;;;;;5093378;28;20028;-81
2021/08/04 04:00:06;;;;;;;8.68;7.20;;;;;;;;;;5092987;28;20043;-80
2021/08/04 04:02:38;;;;;;;13.63;7.10;;;;;;;;;;5110400;28;20043;-81
2021/08/04 04:05:03;;;;;;;11.93;6.72;;;;;;;;;;5109597;28;20044;-81
2021/08/04 04:07:29;;;;;;;11.82;7.22;;;;;;;;;;5092851;28;20032;-80
2021/08/04 04:09:54;;;;;;;11.48;7.75;;;;;;;;;;5093327;28;20057;-82
2021/08/04 04:12:20;;;;;;;11.75;8.07;;;;;;;;;;5093082;28;20035;-81
2021/08/04 04:14:46;;;;;;;12.43;7.65;;;;;;;;;;5111329;28;20148;-82
2021/08/04 04:17:13;;;;;;;12.25;9.98;;;;;;;;;;5093166;28;20050;-82
2021/08/04 04:19:38;;;;;;;11.93;8.52;;;;;;;;;;5109154;28;20027;-81
2021/08/04 04:22:04;;;;;;;13.35;10.27;;;;;;;;;;5091739;28;20389;-81
2021/08/04 04:24:29;;;;;;;14.50;9.90;;;;;;;;;;5108673;28;20077;-81
2021/08/04 04:26:55;;;;;;;11.57;9.07;;;;;;;;;;5091132;28;20028;-80
2021/08/04 04:29:21;;;;;;;10.95;8.98;;;;;;;;;;5108237;28;20028;-80
2021/08/04 04:31:46;;;;;;;12.68;9.07;;;;;;;;;;5108391;28;20055;-80
2021/08/04 04:34:13;;;;;;;13.15;8.95;;;;;;;;;;5091159;28;20036;-82
2021/08/04 04:36:39;;;;;;;15.77;9.55;;;;;;;;;;5108211;28;20050;-81
2021/08/04 04:39:05;;;;;;;15.10;10.32;;;;;;;;;;5091308;28;20036;-80
2021/08/04 04:41:30;;;;;;;13.23;8.73;;;;;;;;;;5091612;28;20035;-80
2021/08/04 04:43:56;;;;;;;13.63;10.05;;;;;;;;;;5092249;28;20036;-80
2021/08/04 04:46:22;;;;;;;12.00;8.38;;;;;;;;;;5106675;28;20532;-80
2021/08/04 04:48:47;;;;;;;14.85;10.38;;;;;;;;;;5087875;28;20042;-79
2021/08/04 04:51:12;;;;;;;13.77;9.98;;;;;;;;;;5108255;28;20040;-80
2021/08/04 04:53:38;;;;;;;13.90;10.43;;;;;;;;;;5107185;28;20039;-79
2021/08/04 04:56:03;;;;;;;16.17;10.20;;;;;;;;;;5106609;28;20043;-79
2021/08/04 04:58:28;;;;;;;16.30;10.43;;;;;;;;;;5106837;28;20028;-81
2021/08/04 05:00:54;;;;;;;16.23;10.48;;;;;;;;;;5088543;28;20036;-80
2021/08/04 05:03:20;;;;;;;14.13;9.95;;;;;;;;;;5089710;28;20076;-80
2021/08/04 05:05:46;;;;;;;16.33;10.82;;;;;;;;;;5105725;28;20040;-79
2021/08/04 05:08:11;;;;;;;15.60;10.25;;;;;;;;;;5085736;28;20036;-79
2021/08/04 05:10:37;;;;;;;16.85;10.35;;;;;;;;;;5085495;28;20123;-79
2021/08/04 05:13:02;;;;;;;14.02;10.60;;;;;;;;;;5069357;28;20033;-80
2021/08/04 05:15:28;;;;;;;17.35;10.73;;;;;;;;;;5068673;28;20440;-80
2021/08/04 05:17:54;;;;;;;18.55;10.70;;;;;;;;;;5068339;28;20029;-80
2021/08/04 05:20:21;;;;;;;19.40;11.38;;;;;;;;;;5069581;28;20082;-79
2021/08/04 05:22:47;;;;;;;16.15;11.00;;;;;;;;;;5076637;28;20160;-80
2021/08/04 05:25:13;;;;;;;14.90;10.63;;;;;;;;;;5089069;28;20651;-79
2021/08/04 05:27:38;;;;;;;14.93;11.35;;;;;;;;;;5089418;28;20043;-79
2021/08/04 05:30:04;;;;;;;18.80;12.07;;;;;;;;;;5090147;28;20032;-79
2021/08/04 05:32:30;;;;;;;15.60;11.77;;;;;;;;;;5106000;28;20410;-81
2021/08/04 05:34:55;;;;;;;17.77;11.90;;;;;;;;;;5089587;28;20461;-81
2021/08/04 05:37:21;;;;;;;15.95;11.90;;;;;;;;;;5105938;28;20036;-79
2021/08/04 05:39:46;;;;;;;17.83;12.30;;;;;;;;;;5106591;28;20032;-79
2021/08/04 05:42:12;;;;;;;16.50;11.65;;;;;;;;;;5089830;28;20041;-80
2021/08/04 05:44:38;;;;;;;15.15;11.80;;;;;;;;;;5088971;28;20028;-79
2021/08/04 05:47:04;;;;;;;17.05;12.10;;;;;;;;;;5089580;28;20027;-80
2021/08/04 05:49:29;;;;;;;16.52;11.65;;;;;;;;;;5089509;28;20039;-80
2021/08/04 05:51:55;;;;;;;19.70;12.82;;;;;;;;;;5088311;28;20032;-86
2021/08/04 05:54:20;;;;;;;17.05;12.40;;;;;;;;;;5106476;28;20039;-80
2021/08/04 05:56:47;;;;;;;16.23;11.93;;;;;;;;;;5088658;28;20028;-79
2021/08/04 05:59:13;;;;;;;16.42;12.60;;;;;;;;;;5107040;28;20042;-79
2021/08/04 06:01:38;;;;;;;17.38;12.23;;;;;;;;;;5106939;28;20682;-80
2021/08/04 06:04:04;;;;;;;17.73;12.93;;;;;;;;;;5101004;28;20024;-78
2021/08/04 06:06:30;;;;;;;15.88;12.57;;;;;;;;;;5086007;28;20058;-81
2021/08/04 06:08:56;;;;;;;20.85;13.70;;;;;;;;;;5100677;28;20067;-80
2021/08/04 06:11:22;;;;;;;19.42;12.75;;;;;;;;;;5082428;28;20385;-79
2021/08/04 06:13:48;;;;;;;19.20;12.98;;;;;;;;;;5082868;28;20654;-79
2021/08/04 06:16:13;;;;;;;20.95;13.27;;;;;;;;;;5081103;28;20047;-80
2021/08/04 06:18:39;;;;;;;15.63;11.40;;;;;;;;;;5098567;28;20032;-80
2021/08/04 06:21:06;;;;;;;22.38;13.00;;;;;;;;;;5098147;28;20039;-80
2021/08/04 06:23:31;;;;;;;17.17;12.35;;;;;;;;;;5080667;28;20032;-79
2021/08/04 06:25:56;;;;;;;16.20;10.98;;;;;;;;;;5098230;28;20032;-81
2021/08/04 06:28:22;;;;;;;13.70;10.10;;;;;;;;;;5097821;28;20500;-79
2021/08/04 06:30:47;;;;;;;16.73;11.82;;;;;;;;;;5097677;28;20039;-80
2021/08/04 06:33:14;;;;;;;15.95;11.73;;;;;;;;;;5098842;28;20083;-79
2021/08/04 06:35:39;;;;;;;12.52;9.90;;;;;;;;;;5080836;28;20490;-78
2021/08/04 06:38:04;;;;;;;16.77;9.93;;;;;;;;;;5097870;28;20035;-78
2021/08/04 06:40:30;;;;;;;13.88;10.07;;;;;;;;;;5097687;28;20043;-79
2021/08/04 06:42:55;;;;;;;14.63;11.07;;;;;;;;;;5097631;28;20032;-79
2021/08/04 06:45:21;;;;;;;15.60;10.02;;;;;;;;;;5098867;28;20051;-80
2021/08/04 06:47:46;;;;;;;16.35;10.77;;;;;;;;;;5096977;28;20040;-79
2021/08/04 06:50:12;;;;;;;11.90;9.27;;;;;;;;;;5098771;28;20036;-78
2021/08/04 06:52:37;;;;;;;12.15;9.65;;;;;;;;;;5079963;28;20069;-78
2021/08/04 06:55:03;;;;;;;12.80;10.82;;;;;;;;;;5096022;28;20042;-79
2021/08/04 06:57:28;;;;;;;14.38;10.82;;;;;;;;;;5099780;28;20474;-80
2021/08/04 06:59:54;;;;;;;13.73;10.55;;;;;;;;;;5101438;28;20032;-81
2021/08/04 07:02:19;;;;;;;13.65;9.77;;;;;;;;;;5105099;28;20063;-82
2021/08/04 07:04:45;;;;;;;12.00;9.02;;;;;;;;;;5100431;28;20031;-81
2021/08/04 07:07:14;;;;;;;11.25;9.80;;;;;;;;;;5106955;28;20039;-79
2021/08/04 07:09:39;;;;;;;10.43;9.25;;;;;;;;;;5107787;28;20035;-80
2021/08/04 07:12:05;;;;;;;12.90;9.68;;;;;;;;;;5089590;28;20036;-80
2021/08/04 07:14:31;;;;;;;16.65;9.63;;;;;;;;;;5107067;28;20040;-81
2021/08/04 07:16:56;;;;;;;13.48;10.00;;;;;;;;;;5103450;28;20067;-79
2021/08/04 07:19:22;;;;;;;13.98;10.95;;;;;;;;;;5107819;28;20036;-82
2021/08/04 07:21:47;;;;;;;10.35;8.00;;;;;;;;;;5107296;28;20082;-81
2021/08/04 07:24:15;;;;;;;11.15;9.32;;;;;;;;;;5105838;28;20085;-83
2021/08/04 07:26:41;;;;;;;9.77;8.77;;;;;;;;;;5083379;28;20032;-76
2021/08/04 07:29:07;;;;;;;10.15;8.90;;;;;;;;;;5095878;28;20081;-77
2021/08/04 07:31:34;;;;;;;12.15;8.60;;;;;;;;;;5092238;28;20060;-77
2021/08/04 07:33:59;;;;;;;11.15;9.82;;;;;;;;;;5077219;28;20065;-77
2021/08/04 07:36:25;;;;;;;12.05;8.80;;;;;;;;;;5094244;28;20028;-76
2021/08/04 07:38:51;;;;;;;11.45;8.75;;;;;;;;;;5076857;28;20032;-77
2021/08/04 07:41:16;;;;;;;11.70;10.02;;;;;;;;;;5094072;28;20036;-76
2021/08/04 07:43:43;;;;;;;11.43;9.77;;;;;;;;;;5095095;28;20114;-77
2021/08/04 07:46:08;;;;;;;11.40;9.07;;;;;;;;;;5095154;28;20039;-76
2021/08/04 07:48:35;;;;;;;13.88;9.23;;;;;;;;;;5094002;28;20032;-76
2021/08/04 07:51:02;;;;;;;11.68;9.35;;;;;;;;;;5093974;28;20067;-76
2021/08/04 07:53:28;;;;;;;13.32;8.35;;;;;;;;;;5094808;28;20489;-76
2021/08/04 07:55:54;;;;;;;12.95;7.55;;;;;;;;;;5092942;28;20040;-77
2021/08/04 07:58:19;;;;;;;9.25;7.55;;;;;;;;;;5094861;28;20054;-77
2021/08/04 08:00:45;;;;;;;7.13;5.75;;;;;;;;;;5094861;28;20401;-77
2021/08/04 08:03:10;;;;;;;8.68;7.65;;;;;;;;;;5094825;28;20028;-78
2021/08/04 08:05:35;;;;;;;12.75;8.65;;;;;;;;;;5094690;28;20039;-77
2021/08/04 08:08:04;;;;;;;10.07;7.60;;;;;;;;;;5093631;28;20039;-77
2021/08/04 08:10:33;;;;;;;8.88;7.18;;;;;;;;;;5094842;28;20028;-77
2021/08/04 08:12:59;;;;;;;8.63;7.72;;;;;;;;;;5093543;28;20039;-78
2021/08/04 08:15:26;;;;;;;6.35;5.75;;;;;;;;;;5094551;28;20034;-78
2021/08/04 08:17:51;;;;;;;7.03;5.82;;;;;;;;;;5093327;27;20542;-78
2021/08/04 08:20:19;;;;;;;7.13;6.38;;;;;;;;;;5093401;28;20128;-78
2021/08/04 08:22:45;;;;;;;9.02;6.50;;;;;;;;;;5091945;28;20039;-77
2021/08/04 08:25:13;;;;;;;7.95;6.50;;;;;;;;;;5092773;28;20043;-79
2021/08/04 08:27:39;;;;;;;11.70;6.15;;;;;;;;;;5075495;28;20506;-78
2021/08/04 08:30:05;;;;;;;7.72;6.38;;;;;;;;;;5094334;28;20138;-78
2021/08/04 08:32:30;;;;;;;7.63;6.05;;;;;;;;;;5092717;28;20421;-77
2021/08/04 08:34:56;;;;;;;6.85;5.75;;;;;;;;;;5093152;28;20032;-77
2021/08/04 08:37:22;;;;;;;8.25;6.57;;;;;;;;;;5093042;28;20032;-77
2021/08/04 08:39:47;;;;;;;8.40;6.35;;;;;;;;;;5075953;28;20028;-77
2021/08/04 08:42:13;;;;;;;6.22;4.90;;;;;;;;;;5092802;28;20542;-77
2021/08/04 08:44:38;;;;;;;5.82;4.75;;;;;;;;;;5092985;28;20464;-77
2021/08/04 08:47:08;;;;;;;5.10;4.25;;;;;;;;;;5092525;28;20466;-77
2021/08/04 08:49:33;;;;;;;7.40;4.50;;;;;;;;;;5094042;28;20085;-77
2021/08/04 08:51:59;;;;;;;9.48;5.45;;;;;;;;;;5091823;28;20032;-77
2021/08/04 08:54:26;;;;;;;4.60;3.25;;;;;;;;;;5092644;28;20032;-77
2021/08/04 08:56:52;;;;;;;7.40;4.05;;;;;;;;;;5092326;28;20106;-78
2021/08/04 08:59:18;;;;;;;6.13;4.55;;;;;;;;;;5091872;28;20127;-78
2021/08/04 09:01:44;;;;;;;6.75;3.50;;;;;;;;;;5075611;28;20101;-77
2021/08/04 09:04:11;;;;;;;5.25;4.05;;;;;;;;;;5092489;28;20031;-77
2021/08/04 09:06:50;;;;;;;5.10;3.03;;;;;;;;;;5093583;28;20092;-77
2021/08/04 09:09:20;;;;;;;3.67;2.70;;;;;;;;;;5075873;28;20034;-78
2021/08/04 09:11:48;;;;;;;3.42;2.90;;;;;;;;;;5092376;28;20398;-81
2021/08/04 09:14:13;;;;;;;3.20;2.17;;;;;;;;;;5075495;28;20494;-78
2021/08/04 09:16:39;;;;;;;4.35;2.80;;;;;;;;;;5092427;28;20089;-77
2021/08/04 09:19:19;;;;;;;8.07;2.38;;;;;;;;;;5075527;28;20036;-78
2021/08/04 09:21:44;;;;;;;3.17;2.28;;;;;;;;;;5093595;28;20040;-78
2021/08/04 09:24:10;;;;;;;5.28;2.38;;;;;;;;;;5091720;28;20039;-78
2021/08/04 09:26:39;;;;;;;4.78;2.28;;;;;;;;;;5092183;28;20068;-78
2021/08/04 09:29:07;;;;;;;5.20;2.05;;;;;;;;;;5092322;28;20046;-78
2021/08/04 09:31:49;;;;;;;4.43;2.08;;;;;;;;;;5093367;28;20056;-77
2021/08/04 09:34:38;;;;;;;4.50;1.90;;;;;;;;;;5092965;28;20044;-78
2021/08/04 09:37:05;;;;;;;8.85;2.05;;;;;;;;;;5091920;28;20043;-77
2021/08/04 09:39:31;;;;;;;4.53;2.30;;;;;;;;;;5091856;28;20032;-78
2021/08/04 09:41:58;;;;;;;5.63;2.30;;;;;;;;;;5092177;28;20111;-78
2021/08/04 09:44:24;;;;;;;3.05;1.60;;;;;;;;;;5092012;28;20408;-78
2021/08/04 09:47:04;;;;;;;6.22;1.70;;;;;;;;;;5093138;28;20107;-79
2021/08/04 09:49:30;;;;;;;7.95;2.30;;;;;;;;;;5075181;28;20044;-78
2021/08/04 09:52:06;;;;;;;5.32;2.20;;;;;;;;;;5092034;28;20036;-77
2021/08/04 09:54:40;;;;;;;5.78;1.98;;;;;;;;;;5091645;28;20405;-78
2021/08/04 09:57:06;;;;;;;4.47;1.98;;;;;;;;;;5074140;28;20135;-79
2021/08/04 09:59:31;;;;;;;3.25;2.20;;;;;;;;;;5075076;28;20111;-78
2021/08/04 10:01:59;;;;;;;13.63;2.83;;;;;;;;;;5093091;28;20043;-78
2021/08/04 10:04:24;;;;;;;5.70;2.38;;;;;;;;;;5093109;28;20072;-77
2021/08/04 10:07:02;;;;;;;5.50;2.03;;;;;;;;;;5091724;28;20120;-77
2021/08/04 10:09:27;;;;;;;4.35;2.03;;;;;;;;;;5091923;28;20040;-79
2021/08/04 10:11:53;;;;;;;8.80;2.08;;;;;;;;;;5091591;28;20047;-78
2021/08/04 10:14:20;;;;;;;6.18;2.33;;;;;;;;;;5092864;28;20035;-77
2021/08/04 10:16:47;;;;;;;7.75;2.22;;;;;;;;;;5090907;28;20050;-77
2021/08/04 10:19:14;;;;;;;5.07;2.10;;;;;;;;;;5091772;28;20040;-77
2021/08/04 10:21:44;;;;;;;6.95;2.17;;;;;;;;;;5092670;28;20055;-77
2021/08/04 10:24:12;;;;;;;3.95;2.70;;;;;;;;;;5092766;28;20118;-79
2021/08/04 10:26:38;;;;;;;4.07;2.40;;;;;;;;;;5091498;28;20097;-77
2021/08/04 10:29:04;;;;;;;11.73;2.10;;;;;;;;;;5092842;28;20087;-78
2021/08/04 10:31:32;;;;;;;7.05;2.72;;;;;;;;;;5092661;28;20040;-78
2021/08/04 10:33:58;;;;;;;7.70;2.60;;;;;;;;;;5093029;28;20027;-78
2021/08/04 10:36:31;;;;;;;5.20;2.50;;;;;;;;;;5091463;28;20036;-81
2021/08/04 10:38:58;;;;;;;4.68;1.98;;;;;;;;;;5092696;28;20036;-79
2021/08/04 10:41:26;;;;;;;4.38;2.20;;;;;;;;;;5092801;28;20036;-78
2021/08/04 10:44:00;;;;;;;4.32;2.10;;;;;;;;;;5091553;28;20043;-78
2021/08/04 10:46:31;;;;;;;7.13;2.03;;;;;;;;;;5091827;28;20071;-78
2021/08/04 10:49:03;;;;;;;4.75;2.30;;;;;;;;;;5078474;28;20039;-77
2021/08/04 10:51:30;;;;;;;3.63;1.88;;;;;;;;;;5094888;28;20470;-78
2021/08/04 10:54:02;;;;;;;6.10;2.33;;;;;;;;;;5096314;28;20020;-79
2021/08/04 10:56:37;;;;;;;4.22;2.22;;;;;;;;;;5077220;28;20489;-78
2021/08/04 10:59:23;;;;;;;2.75;2.17;;;;;;;;;;5078035;28;20031;-78
2021/08/04 11:01:53;;;;;;;5.10;2.50;;;;;;;;;;5096206;28;20114;-78
2021/08/04 11:04:27;;;;;;;8.73;2.50;;;;;;;;;;5094805;28;20032;-78
2021/08/04 11:07:08;;;;;;;5.97;2.43;;;;;;;;;;5096257;28;20121;-78
2021/08/04 11:09:41;;;;;;;4.75;2.60;;;;;;;;;;5077542;28;20044;-77
2021/08/04 11:12:11;;;;;;;4.50;2.92;;;;;;;;;;5095772;28;20047;-77
2021/08/04 11:14:38;;;;;;;4.57;2.63;;;;;;;;;;5094547;28;20483;-77
2021/08/04 11:17:05;;;;;;;11.55;2.58;;;;;;;;;;5094486;28;20039;-77
2021/08/04 11:19:36;;;;;;;9.10;2.50;;;;;;;;;;5094897;28;20032;-78
2021/08/04 11:22:17;;;;;;;5.28;2.40;;;;;;;;;;5094713;28;20055;-77
2021/08/04 11:25:00;;;;;;;6.68;2.85;;;;;;;;;;5094489;28;20048;-80
2021/08/04 11:27:28;;;;;;;14.80;3.80;;;;;;;;;;5096607;28;20504;-78
2021/08/04 11:29:55;;;;;;;8.95;3.63;;;;;;;;;;5079426;28;20031;-78
2021/08/04 11:32:23;;;;;;;15.23;3.83;;;;;;;;;;5094996;28;20189;-78
2021/08/04 11:34:49;;;;;;;13.27;4.28;;;;;;;;;;5078510;28;20032;-79
2021/08/04 11:37:15;;;;;;;11.05;4.55;;;;;;;;;;5085066;28;20122;-78
2021/08/04 11:39:57;;;;;;;7.65;3.88;;;;;;;;;;5102552;28;20024;-78
2021/08/04 11:42:23;;;;;;;9.32;4.53;;;;;;;;;;5085155;28;20043;-78
2021/08/04 11:44:50;;;;;;;6.43;3.78;;;;;;;;;;5102989;28;20028;-77
2021/08/04 11:47:15;;;;;;;5.85;3.42;;;;;;;;;;5081741;28;20039;-77
2021/08/04 11:49:49;;;;;;;12.10;4.70;;;;;;;;;;5080080;28;20119;-77
2021/08/04 11:52:16;;;;;;;7.93;4.20;;;;;;;;;;5058996;28;20036;-77
2021/08/04 11:54:45;;;;;;;8.75;4.45;;;;;;;;;;5074018;28;20042;-77
2021/08/04 11:57:25;;;;;;;9.00;4.90;;;;;;;;;;5078951;28;20038;-77
2021/08/04 11:59:55;;;;;;;12.02;4.80;;;;;;;;;;5098807;28;20039;-77
2021/08/04 12:02:22;;;;;;;11.30;5.22;;;;;;;;;;5099039;28;20466;-77
2021/08/04 12:04:55;;;;;;;15.23;5.10;;;;;;;;;;5097853;28;20079;-77
2021/08/04 12:07:26;;;;;;;10.57;4.97;;;;;;;;;;5080008;28;20040;-77
2021/08/04 12:09:57;;;;;;;11.77;4.68;;;;;;;;;;5093782;28;20416;-76
2021/08/04 12:12:27;;;;;;;8.93;4.13;;;;;;;;;;5095183;28;20040;-77
2021/08/04 12:14:53;;;;;;;11.70;4.47;;;;;;;;;;5105582;28;20043;-78
2021/08/04 12:17:35;;;;;;;9.13;4.38;;;;;;;;;;5102932;28;20035;-78
2021/08/04 12:20:14;;;;;;;9.93;4.07;;;;;;;;;;5102746;28;20531;-78
2021/08/04 12:22:41;;;;;;;14.38;4.50;;;;;;;;;;5102851;28;20039;-77
2021/08/04 12:25:07;;;;;;;7.88;3.80;;;;;;;;;;5101848;28;20036;-77
2021/08/04 12:27:42;;;;;;;9.95;3.85;;;;;;;;;;5098146;28;20066;-77
2021/08/04 12:30:12;;;;;;;12.45;4.03;;;;;;;;;;5078935;28;20032;-77
2021/08/04 12:32:57;;;;;;;5.68;3.50;;;;;;;;;;5095088;28;20048;-77
2021/08/04 12:36:10;;;;;;;5.35;3.58;;;;;;;;;;5096077;28;20044;-76
2021/08/04 12:38:38;;;;;;;11.27;3.50;;;;;;;;;;5089495;28;20058;-78
2021/08/04 12:41:05;;;;;;;9.75;3.45;;;;;;;;;;5088568;28;20039;-78
2021/08/04 12:43:31;;;;;;;5.50;3.33;;;;;;;;;;5086263;28;20067;-78
2021/08/04 12:45:58;;;;;;;5.32;3.25;;;;;;;;;;5086370;28;20048;-78
2021/08/04 12:48:41;;;;;;;5.97;3.08;;;;;;;;;;5062670;28;20514;-78
2021/08/04 12:51:22;;;;;;;4.80;2.80;;;;;;;;;;5084571;28;20465;-77
2021/08/04 12:53:59;;;;;;;4.63;3.22;;;;;;;;;;5078880;28;20158;-78
2021/08/04 12:56:40;;;;;;;4.32;2.80;;;;;;;;;;5096306;28;20057;-77
2021/08/04 12:59:10;;;;;;;5.85;3.47;;;;;;;;;;5098756;28;20036;-84
2021/08/04 13:01:38;;;;;;;8.82;3.28;;;;;;;;;;5098234;28;20036;-80
2021/08/04 13:04:29;;;;;;;5.93;3.10;;;;;;;;;;5083080;28;20047;-82
2021/08/04 13:06:56;;;;;;;4.22;3.17;;;;;;;;;;5081303;28;20040;-81
2021/08/04 13:09:45;;;;;;;3.80;2.90;;;;;;;;;;5081371;28;20493;-79
2021/08/04 13:12:19;;;;;;;4.10;2.80;;;;;;;;;;5075129;28;20044;-79
2021/08/04 13:15:09;;;;;;;4.68;3.13;;;;;;;;;;5080511;28;20032;-79
2021/08/04 13:17:49;;;;;;;3.63;2.65;;;;;;;;;;5098897;28;20508;-80
2021/08/04 13:20:16;;;;;;;10.25;3.10;;;;;;;;;;5097756;28;20036;-79
2021/08/04 13:22:54;;;;;;;4.43;3.05;;;;;;;;;;5068886;28;20044;-79
2021/08/04 13:25:24;;;;;;;6.55;3.28;;;;;;;;;;5077410;28;20059;-81
2021/08/04 13:28:05;;;;;;;5.13;3.30;;;;;;;;;;5062859;28;20039;-83
2021/08/04 13:30:33;;;;;;;5.90;3.30;;;;;;;;;;5085658;28;20058;-79
2021/08/04 13:33:01;;;;;;;5.65;3.42;;;;;;;;;;5079706;28;20048;-78
2021/08/04 13:35:26;;;;;;;4.32;3.45;;;;;;;;;;5077709;28;20028;-82
2021/08/04 13:37:51;;;;;;;8.00;3.88;;;;;;;;;;5068788;28;20099;-84
2021/08/04 13:40:17;;;;;;;4.57;3.30;;;;;;;;;;5070619;28;20036;-81
2021/08/04 13:42:44;;;;;;;9.82;4.32;;;;;;;;;;5088392;28;20033;-80
2021/08/04 13:45:12;;;;;;;12.25;4.20;;;;;;;;;;5087394;28;20024;-82
2021/08/04 13:47:39;;;;;;;9.70;4.13;;;;;;;;;;5070432;28;20039;-83
2021/08/04 13:50:05;;;;;;;8.80;4.40;;;;;;;;;;5072321;28;20047;-83
2021/08/04 13:52:35;;;;;;;16.35;5.03;;;;;;;;;;5072863;28;20036;-82
2021/08/04 13:55:02;;;;;;;6.68;4.47;;;;;;;;;;5088994;28;20032;-81
2021/08/04 13:57:28;;;;;;;8.05;4.28;;;;;;;;;;5104809;28;20058;-83
2021/08/04 13:59:56;;;;;;;9.48;4.22;;;;;;;;;;5104566;28;20036;-84
2021/08/04 14:02:22;;;;;;;8.40;4.18;;;;;;;;;;5083811;28;20560;-80
2021/08/04 14:04:47;;;;;;;9.30;4.28;;;;;;;;;;5098829;28;20036;-78
2021/08/04 14:07:13;;;;;;;5.53;3.70;;;;;;;;;;5080495;28;20032;-83
2021/08/04 14:09:38;;;;;;;9.73;4.13;;;;;;;;;;5097092;28;20145;-82
2021/08/04 14:12:04;;;;;;;9.75;4.57;;;;;;;;;;5096118;28;20032;-79
2021/08/04 14:14:30;;;;;;;7.88;4.85;;;;;;;;;;5096198;28;20036;-81
2021/08/04 14:16:56;;;;;;;5.45;4.00;;;;;;;;;;5076840;28;20086;-77
2021/08/04 14:19:22;;;;;;;7.90;5.38;;;;;;;;;;5093371;28;20036;-78
2021/08/04 14:21:47;;;;;;;6.30;3.75;;;;;;;;;;5094836;28;20039;-79
2021/08/04 14:24:13;;;;;;;8.15;4.10;;;;;;;;;;5096796;28;20032;-78
2021/08/04 14:26:38;;;;;;;3.95;3.50;;;;;;;;;;5099044;28;20035;-80
2021/08/04 14:29:03;;;;;;;8.43;3.97;;;;;;;;;;5098630;28;20046;-77
2021/08/04 14:31:30;;;;;;;6.47;3.25;;;;;;;;;;5097392;28;20048;-78
2021/08/04 14:33:58;;;;;;;5.55;3.83;;;;;;;;;;5097992;28;20040;-79
2021/08/04 14:36:24;;;;;;;6.82;3.42;;;;;;;;;;5111698;28;20036;-79
2021/08/04 14:38:49;;;;;;;7.32;3.65;;;;;;;;;;5120438;28;20081;-78
2021/08/04 14:41:15;;;;;;;5.63;3.70;;;;;;;;;;5101691;28;20047;-80